Time;durP1;ratioP1;P1;durP2;ratioP2;P2;SDS_P1;SDS_P2;PMS_P1;PMS_P2;Temp;Humidity;BMP_temperature;BMP_pressure;BME280_temperature;BME280_humidity;BME280_pressure;Samples;Min_cycle;Max_cycle;Signal;HPM_P1;HPM_P2
2023/10/04 00:00:21;;;;;;;16.05;15.15;;;;;;;;;;5002702;28;20044;-67
2023/10/04 00:02:52;;;;;;;15.70;14.73;;;;;;;;;;4988889;28;20344;-67
2023/10/04 00:05:24;;;;;;;16.45;15.45;;;;;;;;;;5001337;28;20114;-64
2023/10/04 00:07:52;;;;;;;17.00;15.82;;;;;;;;;;4999937;28;20061;-64
2023/10/04 00:10:19;;;;;;;17.55;16.55;;;;;;;;;;5001000;28;20081;-64
2023/10/04 00:12:45;;;;;;;17.17;16.17;;;;;;;;;;5003220;28;20254;-64
2023/10/04 00:15:13;;;;;;;17.50;16.52;;;;;;;;;;5000252;28;20636;-64
2023/10/04 00:17:42;;;;;;;18.42;17.25;;;;;;;;;;4970165;28;20100;-68
2023/10/04 00:20:10;;;;;;;16.77;15.77;;;;;;;;;;4983756;28;20049;-67
2023/10/04 00:22:39;;;;;;;16.48;15.52;;;;;;;;;;5003840;28;20058;-67
2023/10/04 00:25:06;;;;;;;16.08;15.18;;;;;;;;;;5002444;28;20026;-67
2023/10/04 00:27:32;;;;;;;16.98;15.98;;;;;;;;;;5003595;28;20495;-67
2023/10/04 00:29:57;;;;;;;16.30;15.40;;;;;;;;;;5000534;28;20033;-64
2023/10/04 00:32:23;;;;;;;17.75;16.65;;;;;;;;;;5001845;28;20096;-64
2023/10/04 00:34:48;;;;;;;16.85;15.38;;;;;;;;;;5001874;28;20041;-64
2023/10/04 00:37:15;;;;;;;17.60;16.50;;;;;;;;;;5003641;28;20037;-64
2023/10/04 00:39:41;;;;;;;16.50;15.55;;;;;;;;;;5004556;28;20026;-64
2023/10/04 00:42:06;;;;;;;17.67;16.67;;;;;;;;;;5005168;28;20415;-64
2023/10/04 00:44:35;;;;;;;16.65;15.75;;;;;;;;;;5005591;28;20038;-64
2023/10/04 00:47:05;;;;;;;16.30;15.40;;;;;;;;;;4988932;28;20120;-64
2023/10/04 00:49:32;;;;;;;16.52;15.57;;;;;;;;;;4990420;28;20136;-64
2023/10/04 00:52:00;;;;;;;16.77;15.85;;;;;;;;;;5003916;28;20076;-65
2023/10/04 00:54:26;;;;;;;16.67;15.68;;;;;;;;;;5005591;28;20512;-63
2023/10/04 00:56:51;;;;;;;16.13;15.23;;;;;;;;;;5006016;28;20129;-67
2023/10/04 00:59:17;;;;;;;17.05;16.05;;;;;;;;;;5005596;28;20033;-68
2023/10/04 01:01:43;;;;;;;16.00;15.10;;;;;;;;;;4991014;28;20351;-68
2023/10/04 01:04:10;;;;;;;15.25;14.35;;;;;;;;;;5006214;28;20038;-67
2023/10/04 01:06:37;;;;;;;16.10;15.20;;;;;;;;;;5005807;28;20096;-66
2023/10/04 01:09:05;;;;;;;16.00;15.10;;;;;;;;;;5005737;28;20030;-67
2023/10/04 01:11:35;;;;;;;15.63;14.73;;;;;;;;;;5004879;28;20093;-67
2023/10/04 01:14:15;;;;;;;15.60;14.70;;;;;;;;;;5000866;28;20030;-67
2023/10/04 01:16:43;;;;;;;17.65;16.65;;;;;;;;;;5003963;28;20199;-67
2023/10/04 01:19:14;;;;;;;16.48;15.50;;;;;;;;;;5005584;28;20068;-67
2023/10/04 01:21:39;;;;;;;16.67;15.77;;;;;;;;;;5003806;28;20034;-67
2023/10/04 01:24:08;;;;;;;16.48;15.57;;;;;;;;;;5005904;28;20048;-67
2023/10/04 01:26:36;;;;;;;16.80;15.80;;;;;;;;;;5004982;28;20045;-67
2023/10/04 01:29:08;;;;;;;15.82;14.93;;;;;;;;;;5003230;28;20061;-67
2023/10/04 01:31:33;;;;;;;16.42;15.52;;;;;;;;;;5005791;28;20074;-67
2023/10/04 01:33:59;;;;;;;14.55;13.73;;;;;;;;;;5004906;28;20026;-67
2023/10/04 01:36:24;;;;;;;14.13;13.32;;;;;;;;;;5002546;28;20030;-67
2023/10/04 01:38:51;;;;;;;15.65;14.65;;;;;;;;;;5004969;28;20124;-67
2023/10/04 01:41:17;;;;;;;16.17;15.20;;;;;;;;;;4985825;28;20192;-67
2023/10/04 01:43:42;;;;;;;15.68;14.77;;;;;;;;;;5003217;28;20559;-67
2023/10/04 01:46:08;;;;;;;14.68;13.85;;;;;;;;;;5004554;28;20038;-67
2023/10/04 01:48:36;;;;;;;15.93;14.95;;;;;;;;;;4985272;28;20111;-67
2023/10/04 01:51:06;;;;;;;14.38;13.57;;;;;;;;;;5003713;28;20044;-67
2023/10/04 01:53:35;;;;;;;14.68;13.80;;;;;;;;;;4989879;28;20046;-67
2023/10/04 01:56:06;;;;;;;17.52;15.95;;;;;;;;;;5003640;28;20073;-67
2023/10/04 01:58:31;;;;;;;15.85;14.95;;;;;;;;;;5005068;28;20547;-67
2023/10/04 02:00:57;;;;;;;18.23;17.08;;;;;;;;;;5003792;28;20030;-67
2023/10/04 02:03:23;;;;;;;18.98;17.92;;;;;;;;;;5003650;28;20092;-67
2023/10/04 02:05:50;;;;;;;20.50;19.38;;;;;;;;;;4987182;28;20034;-67
2023/10/04 02:08:16;;;;;;;20.23;19.10;;;;;;;;;;5004718;28;20110;-67
2023/10/04 02:10:41;;;;;;;22.50;21.17;;;;;;;;;;4985781;28;20037;-67
2023/10/04 02:13:08;;;;;;;25.40;24.05;;;;;;;;;;5003203;28;20485;-67
2023/10/04 02:15:38;;;;;;;26.58;25.17;;;;;;;;;;4988692;28;20681;-67
2023/10/04 02:18:04;;;;;;;28.05;26.58;;;;;;;;;;5006281;28;20080;-67
2023/10/04 02:20:32;;;;;;;32.63;30.88;;;;;;;;;;5004318;28;20033;-67
2023/10/04 02:22:57;;;;;;;32.55;30.85;;;;;;;;;;5003395;28;20059;-68
2023/10/04 02:25:24;;;;;;;31.00;29.35;;;;;;;;;;5002631;28;20045;-68
2023/10/04 02:27:52;;;;;;;32.22;30.52;;;;;;;;;;5003703;28;20026;-67
2023/10/04 02:30:22;;;;;;;30.92;29.15;;;;;;;;;;5003674;28;20377;-67
2023/10/04 02:32:48;;;;;;;29.90;28.30;;;;;;;;;;5001833;28;20034;-68
2023/10/04 02:35:21;;;;;;;21.75;20.60;;;;;;;;;;5004047;28;20041;-68
2023/10/04 02:37:47;;;;;;;19.92;18.83;;;;;;;;;;5004882;28;20034;-68
2023/10/04 02:40:16;;;;;;;19.30;18.20;;;;;;;;;;5003458;28;20104;-68
2023/10/04 02:42:44;;;;;;;18.20;17.20;;;;;;;;;;5003126;28;20634;-68
2023/10/04 02:45:18;;;;;;;17.80;16.77;;;;;;;;;;5003561;28;20514;-67
2023/10/04 02:47:44;;;;;;;19.98;18.85;;;;;;;;;;5003469;28;20117;-67
2023/10/04 02:50:10;;;;;;;21.05;19.88;;;;;;;;;;5002853;28;20587;-67
2023/10/04 02:52:36;;;;;;;28.10;26.58;;;;;;;;;;5001520;28;20036;-68
2023/10/04 02:55:02;;;;;;;33.38;31.60;;;;;;;;;;4986810;28;20030;-67
2023/10/04 02:57:28;;;;;;;34.38;32.58;;;;;;;;;;5002871;28;20480;-67
2023/10/04 02:59:55;;;;;;;37.80;35.85;;;;;;;;;;5004054;28;20033;-68
2023/10/04 03:02:21;;;;;;;40.17;38.10;;;;;;;;;;5004642;28;20038;-67
2023/10/04 03:04:47;;;;;;;43.15;40.90;;;;;;;;;;5003712;28;20038;-67
2023/10/04 03:07:15;;;;;;;40.38;38.25;;;;;;;;;;5003767;28;20033;-67
2023/10/04 03:09:42;;;;;;;40.83;38.55;;;;;;;;;;4985034;28;20030;-67
2023/10/04 03:12:10;;;;;;;39.65;37.53;;;;;;;;;;5002006;28;20038;-67
2023/10/04 03:14:36;;;;;;;44.45;42.15;;;;;;;;;;5005109;28;20053;-67
2023/10/04 03:17:02;;;;;;;40.65;38.55;;;;;;;;;;5002293;28;20531;-67
2023/10/04 03:19:27;;;;;;;37.95;36.00;;;;;;;;;;5001931;28;20466;-67
2023/10/04 03:21:53;;;;;;;33.72;31.95;;;;;;;;;;5004900;28;20044;-67
2023/10/04 03:24:18;;;;;;;29.17;27.65;;;;;;;;;;5001133;28;20085;-67
2023/10/04 03:26:44;;;;;;;30.10;28.50;;;;;;;;;;5000228;28;20022;-68
2023/10/04 03:29:11;;;;;;;26.52;25.13;;;;;;;;;;4999259;28;20525;-67
2023/10/04 03:31:39;;;;;;;26.73;24.30;;;;;;;;;;5003221;28;20052;-64
2023/10/04 03:34:04;;;;;;;21.67;19.65;;;;;;;;;;5004451;28;20522;-64
2023/10/04 03:36:34;;;;;;;18.40;17.40;;;;;;;;;;5000961;28;20038;-64
2023/10/04 03:38:59;;;;;;;17.40;16.40;;;;;;;;;;5003542;28;20036;-64
2023/10/04 03:41:25;;;;;;;19.15;18.10;;;;;;;;;;5001558;28;20475;-64
2023/10/04 03:43:50;;;;;;;22.70;21.48;;;;;;;;;;5002830;28;20036;-64
2023/10/04 03:46:19;;;;;;;25.65;24.30;;;;;;;;;;5004028;28;20030;-64
2023/10/04 03:48:49;;;;;;;25.33;23.77;;;;;;;;;;5003947;28;20030;-64
2023/10/04 03:51:22;;;;;;;26.85;25.42;;;;;;;;;;5004731;28;20037;-64
2023/10/04 03:53:49;;;;;;;26.02;24.60;;;;;;;;;;4999763;28;20122;-64
2023/10/04 03:56:17;;;;;;;26.65;25.02;;;;;;;;;;5003318;28;20088;-64
2023/10/04 03:58:43;;;;;;;26.25;24.65;;;;;;;;;;5002262;28;20148;-67
2023/10/04 04:01:10;;;;;;;26.05;24.67;;;;;;;;;;5001481;28;20141;-65
2023/10/04 04:03:36;;;;;;;26.63;25.20;;;;;;;;;;5000032;28;20041;-67
2023/10/04 04:06:02;;;;;;;23.38;22.10;;;;;;;;;;5003691;28;20030;-69
2023/10/04 04:08:27;;;;;;;20.73;19.60;;;;;;;;;;5002833;28;20092;-67
2023/10/04 04:10:53;;;;;;;21.10;19.95;;;;;;;;;;5002497;28;20070;-67
2023/10/04 04:13:19;;;;;;;19.10;18.08;;;;;;;;;;4990026;28;20116;-66
2023/10/04 04:15:45;;;;;;;19.25;18.15;;;;;;;;;;4988624;28;20121;-67
2023/10/04 04:18:19;;;;;;;18.52;17.52;;;;;;;;;;5007231;28;20527;-67
2023/10/04 04:20:48;;;;;;;21.15;19.27;;;;;;;;;;5008399;28;20030;-67
2023/10/04 04:23:15;;;;;;;18.63;17.42;;;;;;;;;;5007287;28;20060;-66
2023/10/04 04:25:41;;;;;;;17.50;16.50;;;;;;;;;;5006981;28;20030;-67
2023/10/04 04:28:12;;;;;;;18.45;17.45;;;;;;;;;;5007259;28;20036;-67
2023/10/04 04:30:38;;;;;;;19.10;18.02;;;;;;;;;;5005375;28;20026;-67
2023/10/04 04:33:06;;;;;;;18.45;17.35;;;;;;;;;;5006123;28;20141;-67
2023/10/04 04:38:24;;;;;;;25.00;23.65;;;;;;;;;;5004380;28;20427;-69
2023/10/04 04:40:56;;;;;;;22.35;21.10;;;;;;;;;;5005253;28;20121;-69
2023/10/04 04:45:53;;;;;;;22.83;21.60;;;;;;;;;;5004073;28;20498;-69
2023/10/04 04:48:24;;;;;;;20.17;19.02;;;;;;;;;;5002797;28;20598;-68
2023/10/04 04:50:54;;;;;;;;;;;;;;;;;;5006012;28;20048;-69
2023/10/04 04:53:22;;;;;;;18.00;16.95;;;;;;;;;;5005316;28;19925;-68
2023/10/04 04:55:51;;;;;;;18.52;17.48;;;;;;;;;;5004253;28;20464;-67
2023/10/04 04:58:21;;;;;;;18.35;17.35;;;;;;;;;;5005577;28;20034;-69
2023/10/04 05:00:50;;;;;;;18.45;17.38;;;;;;;;;;5003824;28;20176;-66
2023/10/04 05:03:21;;;;;;;17.13;16.17;;;;;;;;;;5007165;28;20042;-63
2023/10/04 05:05:49;;;;;;;;;;;;;;;;;;5005783;28;20037;-63
2023/10/04 05:08:18;;;;;;;17.80;16.75;;;;;;;;;;5005510;28;19924;-63
2023/10/04 05:10:45;;;;;;;18.05;17.05;;;;;;;;;;5004915;28;20041;-67
2023/10/04 05:13:14;;;;;;;19.83;18.63;;;;;;;;;;5005724;28;20115;-67
2023/10/04 05:15:42;;;;;;;18.83;17.75;;;;;;;;;;5005956;28;20072;-68
2023/10/04 05:18:15;;;;;;;18.90;17.85;;;;;;;;;;5007110;28;20127;-68
2023/10/04 05:20:55;;;;;;;18.00;16.92;;;;;;;;;;5005380;28;20125;-69
2023/10/04 05:23:25;;;;;;;17.90;16.80;;;;;;;;;;5003959;28;20037;-67
2023/10/04 05:25:52;;;;;;;17.13;16.13;;;;;;;;;;5006010;28;20637;-67
2023/10/04 05:28:18;;;;;;;19.08;17.98;;;;;;;;;;5002102;28;20026;-66
2023/10/04 05:30:45;;;;;;;16.58;15.63;;;;;;;;;;5002020;28;20033;-67
2023/10/04 05:33:15;;;;;;;17.20;16.20;;;;;;;;;;5005206;28;20118;-67
2023/10/04 05:35:43;;;;;;;18.02;17.02;;;;;;;;;;5002213;28;20049;-67
2023/10/04 05:38:11;;;;;;;21.30;19.80;;;;;;;;;;5005646;28;20038;-67
2023/10/04 05:40:38;;;;;;;17.63;16.60;;;;;;;;;;5002661;28;20081;-67
2023/10/04 05:43:05;;;;;;;17.42;16.42;;;;;;;;;;5004578;28;20038;-67
2023/10/04 05:45:32;;;;;;;17.67;16.67;;;;;;;;;;5003980;28;20066;-67
2023/10/04 05:47:59;;;;;;;18.70;17.60;;;;;;;;;;5000830;28;20352;-67
2023/10/04 05:50:26;;;;;;;22.08;20.67;;;;;;;;;;5003166;28;20057;-67
2023/10/04 05:52:53;;;;;;;21.40;20.25;;;;;;;;;;5002789;28;20033;-64
2023/10/04 05:55:20;;;;;;;25.50;24.15;;;;;;;;;;5004187;28;20042;-64
2023/10/04 05:57:50;;;;;;;22.05;20.75;;;;;;;;;;5004548;28;20056;-63
2023/10/04 06:00:28;;;;;;;23.48;22.17;;;;;;;;;;5004671;28;20092;-64
2023/10/04 06:03:04;;;;;;;22.38;21.15;;;;;;;;;;5004967;28;20038;-64
2023/10/04 06:05:32;;;;;;;22.75;21.50;;;;;;;;;;5003464;28;20037;-65
2023/10/04 06:07:59;;;;;;;26.20;24.48;;;;;;;;;;4983949;28;20370;-67
2023/10/04 06:10:25;;;;;;;26.27;24.80;;;;;;;;;;5003486;28;20100;-68
2023/10/04 06:12:55;;;;;;;25.98;24.58;;;;;;;;;;5001315;28;20038;-68
2023/10/04 06:15:24;;;;;;;24.27;22.95;;;;;;;;;;5002511;28;20037;-68
2023/10/04 06:17:52;;;;;;;24.90;23.52;;;;;;;;;;5001258;28;20054;-67
2023/10/04 06:20:25;;;;;;;27.45;25.90;;;;;;;;;;5000263;28;20410;-64
2023/10/04 06:23:01;;;;;;;23.88;22.63;;;;;;;;;;5004351;28;20033;-64
2023/10/04 06:25:29;;;;;;;22.58;21.30;;;;;;;;;;5000781;28;20042;-64
2023/10/04 06:27:57;;;;;;;23.63;22.27;;;;;;;;;;5004218;28;20026;-64
2023/10/04 06:30:24;;;;;;;22.40;21.10;;;;;;;;;;5002434;28;20507;-64
2023/10/04 06:32:55;;;;;;;21.88;20.67;;;;;;;;;;5004286;28;20432;-63
2023/10/04 06:35:24;;;;;;;21.00;19.50;;;;;;;;;;5002171;28;20464;-63
2023/10/04 06:38:00;;;;;;;17.63;16.67;;;;;;;;;;5003532;28;20037;-63
2023/10/04 06:40:27;;;;;;;18.23;17.23;;;;;;;;;;5001065;28;20042;-63
2023/10/04 06:42:55;;;;;;;17.73;16.73;;;;;;;;;;5001719;28;20410;-63
2023/10/04 06:45:24;;;;;;;18.33;17.25;;;;;;;;;;5002257;28;20042;-65
2023/10/04 06:47:50;;;;;;;17.20;16.13;;;;;;;;;;5000799;28;20137;-63
2023/10/04 06:50:32;;;;;;;16.00;15.00;;;;;;;;;;4986479;28;20467;-63
2023/10/04 06:52:59;;;;;;;15.75;14.32;;;;;;;;;;5000257;28;20602;-63
2023/10/04 06:55:25;;;;;;;15.68;14.68;;;;;;;;;;4997797;28;20280;-63
2023/10/04 06:57:51;;;;;;;15.98;14.98;;;;;;;;;;4999989;28;20084;-63
2023/10/04 07:00:18;;;;;;;14.60;13.75;;;;;;;;;;5000980;28;20138;-63
2023/10/04 07:02:47;;;;;;;15.57;14.68;;;;;;;;;;4985747;28;20531;-64
2023/10/04 07:05:24;;;;;;;15.52;14.63;;;;;;;;;;5003844;28;20041;-64
2023/10/04 07:07:51;;;;;;;15.82;14.93;;;;;;;;;;5001961;28;20034;-63
2023/10/04 07:10:21;;;;;;;17.10;16.10;;;;;;;;;;5001928;28;20483;-62
2023/10/04 07:12:51;;;;;;;17.17;16.17;;;;;;;;;;4997603;28;20034;-63
2023/10/04 07:15:18;;;;;;;17.80;16.80;;;;;;;;;;4984345;28;20041;-63
2023/10/04 07:17:44;;;;;;;17.08;16.08;;;;;;;;;;5002146;28;20042;-63
2023/10/04 07:20:15;;;;;;;17.45;16.45;;;;;;;;;;5002031;28;20089;-63
2023/10/04 07:22:59;;;;;;;;;;;;;;;;;;5000551;28;20027;-64
2023/10/04 07:25:35;;;;;;;19.00;17.90;;;;;;;;;;4985511;28;19921;-63
2023/10/04 07:28:02;;;;;;;17.83;16.83;;;;;;;;;;5000057;28;20029;-63
2023/10/04 07:30:28;;;;;;;19.17;17.83;;;;;;;;;;5001753;28;20054;-64
2023/10/04 07:32:53;;;;;;;18.08;16.98;;;;;;;;;;4999891;28;20104;-63
2023/10/04 07:35:25;;;;;;;18.73;17.63;;;;;;;;;;5002824;28;20403;-63
2023/10/04 07:37:51;;;;;;;21.27;20.08;;;;;;;;;;5000819;28;20046;-65
2023/10/04 07:40:17;;;;;;;18.38;17.27;;;;;;;;;;5002287;28;20279;-65
2023/10/04 07:42:46;;;;;;;20.13;18.48;;;;;;;;;;4981684;28;20739;-65
2023/10/04 07:45:13;;;;;;;21.35;20.10;;;;;;;;;;5002293;28;20033;-66
2023/10/04 07:47:41;;;;;;;20.45;18.77;;;;;;;;;;5000250;28;20383;-65
2023/10/04 07:50:11;;;;;;;18.33;17.23;;;;;;;;;;4984148;28;20042;-65
2023/10/04 07:52:37;;;;;;;17.57;16.57;;;;;;;;;;5002215;28;20038;-65
2023/10/04 07:55:14;;;;;;;18.25;17.25;;;;;;;;;;5001230;28;20331;-65
2023/10/04 07:57:47;;;;;;;16.00;15.10;;;;;;;;;;5000638;28;20038;-65
2023/10/04 08:00:16;;;;;;;17.20;16.20;;;;;;;;;;4999541;28;20034;-65
2023/10/04 08:02:49;;;;;;;18.15;16.95;;;;;;;;;;5001515;28;20038;-65
2023/10/04 08:05:23;;;;;;;17.02;16.02;;;;;;;;;;5000340;28;20069;-64
2023/10/04 08:07:50;;;;;;;17.85;16.85;;;;;;;;;;4999918;28;20030;-63
2023/10/04 08:10:26;;;;;;;18.50;17.30;;;;;;;;;;5001855;28;20107;-64
2023/10/04 08:12:54;;;;;;;19.58;18.48;;;;;;;;;;5001367;28;20038;-65
2023/10/04 08:15:27;;;;;;;18.40;17.30;;;;;;;;;;4997226;28;20104;-64
2023/10/04 08:17:58;;;;;;;17.13;16.13;;;;;;;;;;5002344;28;20034;-64
2023/10/04 08:20:29;;;;;;;19.05;17.95;;;;;;;;;;5001998;28;20750;-65
2023/10/04 08:22:58;;;;;;;16.35;15.45;;;;;;;;;;4984639;28;20522;-64
2023/10/04 08:25:25;;;;;;;18.48;17.45;;;;;;;;;;5002725;28;20050;-64
2023/10/04 08:27:50;;;;;;;16.63;15.68;;;;;;;;;;4999852;28;20030;-64
2023/10/04 08:30:18;;;;;;;18.73;17.63;;;;;;;;;;4999567;28;20030;-64
2023/10/04 08:32:48;;;;;;;20.90;19.45;;;;;;;;;;5002351;28;20030;-64
2023/10/04 08:35:33;;;;;;;16.20;15.25;;;;;;;;;;4986159;28;20034;-64
2023/10/04 08:38:00;;;;;;;15.65;14.75;;;;;;;;;;5001122;28;20044;-64
2023/10/04 08:40:28;;;;;;;16.25;15.15;;;;;;;;;;5001196;28;20030;-64
2023/10/04 08:42:55;;;;;;;15.68;14.77;;;;;;;;;;5001043;28;20697;-64
2023/10/04 08:45:21;;;;;;;16.73;15.55;;;;;;;;;;5000636;28;20061;-64
2023/10/04 08:47:51;;;;;;;16.48;15.43;;;;;;;;;;5000786;28;20091;-64
2023/10/04 08:50:40;;;;;;;14.98;13.98;;;;;;;;;;5002591;28;20617;-62
2023/10/04 08:53:47;;;;;;;14.45;13.65;;;;;;;;;;4993764;28;20050;-62
2023/10/04 08:56:14;;;;;;;16.50;15.18;;;;;;;;;;5004010;28;20022;-62
2023/10/04 08:58:43;;;;;;;14.57;13.77;;;;;;;;;;5002016;28;20557;-63
2023/10/04 09:01:11;;;;;;;14.75;13.75;;;;;;;;;;5003454;28;20042;-64
2023/10/04 09:03:39;;;;;;;15.45;14.55;;;;;;;;;;5004350;28;20025;-64
2023/10/04 09:06:08;;;;;;;17.13;16.13;;;;;;;;;;5006072;28;20341;-61
2023/10/04 09:08:33;;;;;;;17.27;16.27;;;;;;;;;;5005431;28;20069;-64
2023/10/04 09:10:59;;;;;;;16.70;15.70;;;;;;;;;;5004444;28;20080;-66
2023/10/04 09:13:26;;;;;;;18.77;17.67;;;;;;;;;;5006874;28;20504;-64
2023/10/04 09:15:51;;;;;;;16.17;15.07;;;;;;;;;;5001433;28;20626;-63
2023/10/04 09:18:26;;;;;;;19.35;18.02;;;;;;;;;;5005377;28;20038;-63
2023/10/04 09:20:52;;;;;;;17.17;16.17;;;;;;;;;;5004094;28;20091;-63
2023/10/04 09:23:22;;;;;;;16.17;15.27;;;;;;;;;;5007083;28;20042;-63
2023/10/04 09:25:48;;;;;;;18.10;17.00;;;;;;;;;;5004085;28;20065;-63
2023/10/04 09:28:14;;;;;;;16.23;15.32;;;;;;;;;;4986907;28;20030;-63
2023/10/04 09:30:39;;;;;;;16.23;15.23;;;;;;;;;;5002367;28;20084;-63
2023/10/04 09:33:34;;;;;;;15.75;14.85;;;;;;;;;;5002997;28;20352;-64
2023/10/04 09:35:59;;;;;;;14.85;13.95;;;;;;;;;;5004175;28;20038;-64
2023/10/04 09:38:25;;;;;;;15.40;14.23;;;;;;;;;;5005994;28;20096;-64
2023/10/04 09:40:52;;;;;;;14.43;13.63;;;;;;;;;;5009245;28;20045;-63
2023/10/04 09:43:17;;;;;;;14.15;13.35;;;;;;;;;;5006178;28;20116;-64
2023/10/04 09:45:57;;;;;;;16.48;15.35;;;;;;;;;;4989967;28;20152;-65
2023/10/04 09:48:25;;;;;;;13.88;12.77;;;;;;;;;;5006663;28;20048;-64
2023/10/04 09:50:59;;;;;;;14.63;13.63;;;;;;;;;;5008309;28;20029;-65
2023/10/04 09:53:24;;;;;;;14.77;13.85;;;;;;;;;;5005048;28;20038;-65
2023/10/04 09:55:50;;;;;;;13.95;13.15;;;;;;;;;;5002387;28;20038;-64
2023/10/04 09:58:22;;;;;;;17.52;16.45;;;;;;;;;;5002866;28;20038;-65
2023/10/04 10:00:50;;;;;;;15.55;14.65;;;;;;;;;;4985011;28;20038;-65
2023/10/04 10:03:17;;;;;;;15.98;15.02;;;;;;;;;;5004090;28;20048;-64
2023/10/04 10:05:43;;;;;;;14.05;13.15;;;;;;;;;;5005178;28;20041;-64
2023/10/04 10:08:12;;;;;;;14.20;13.40;;;;;;;;;;4988456;28;20722;-64
2023/10/04 10:10:43;;;;;;;15.93;15.02;;;;;;;;;;5003131;28;20064;-65
2023/10/04 10:13:09;;;;;;;15.02;14.18;;;;;;;;;;5002450;28;20040;-65
2023/10/04 10:15:36;;;;;;;15.27;14.38;;;;;;;;;;5005521;28;20066;-65
2023/10/04 10:18:03;;;;;;;14.63;13.82;;;;;;;;;;5002806;28;20479;-64
2023/10/04 10:20:29;;;;;;;17.13;16.02;;;;;;;;;;5002636;28;20776;-64
2023/10/04 10:22:57;;;;;;;15.82;14.93;;;;;;;;;;5004512;28;20054;-64
2023/10/04 10:25:25;;;;;;;15.35;14.45;;;;;;;;;;5004875;28;20052;-65
2023/10/04 10:27:55;;;;;;;14.20;13.40;;;;;;;;;;5003420;28;20022;-65
2023/10/04 10:30:21;;;;;;;14.65;13.75;;;;;;;;;;5004240;28;20052;-64
2023/10/04 10:32:53;;;;;;;16.85;15.88;;;;;;;;;;5006053;28;20046;-64
2023/10/04 10:35:50;;;;;;;16.02;15.02;;;;;;;;;;5003905;28;20132;-64
2023/10/04 10:38:44;;;;;;;16.33;15.38;;;;;;;;;;5000342;28;20030;-66
2023/10/04 10:41:28;;;;;;;14.85;13.95;;;;;;;;;;4999680;28;20100;-66
2023/10/04 10:44:11;;;;;;;15.80;14.88;;;;;;;;;;5002616;28;20128;-66
2023/10/04 10:46:57;;;;;;;15.80;14.90;;;;;;;;;;5004626;28;20029;-66
2023/10/04 10:49:58;;;;;;;16.55;15.57;;;;;;;;;;5004509;28;20038;-65
2023/10/04 10:52:41;;;;;;;18.52;17.42;;;;;;;;;;5001897;28;20038;-64
2023/10/04 10:55:14;;;;;;;15.57;14.68;;;;;;;;;;4986617;28;20034;-64
2023/10/04 10:57:43;;;;;;;16.48;15.48;;;;;;;;;;4987816;28;20040;-64
2023/10/04 11:00:19;;;;;;;14.27;13.48;;;;;;;;;;5000296;28;20050;-65
2023/10/04 11:02:48;;;;;;;16.27;15.38;;;;;;;;;;5004927;28;20500;-65
2023/10/04 11:05:16;;;;;;;14.90;13.90;;;;;;;;;;5004398;28;20064;-65
2023/10/04 11:07:44;;;;;;;17.55;15.80;;;;;;;;;;5001717;28;20061;-65
2023/10/04 11:10:15;;;;;;;16.35;15.45;;;;;;;;;;5000673;28;21964;-64
2023/10/04 11:12:42;;;;;;;18.02;16.35;;;;;;;;;;5003337;28;20622;-65
2023/10/04 11:15:08;;;;;;;16.40;15.40;;;;;;;;;;5000869;28;20025;-65
2023/10/04 11:17:36;;;;;;;16.33;15.43;;;;;;;;;;5001632;28;20049;-65
2023/10/04 11:20:10;;;;;;;16.20;15.20;;;;;;;;;;5003182;28;20038;-65
2023/10/04 11:22:37;;;;;;;20.00;18.85;;;;;;;;;;5001349;28;20116;-65
2023/10/04 11:25:05;;;;;;;16.30;15.40;;;;;;;;;;5001779;28;20034;-66
2023/10/04 11:27:31;;;;;;;17.20;15.80;;;;;;;;;;5004441;28;20470;-65
2023/10/04 11:29:57;;;;;;;16.20;15.23;;;;;;;;;;5002401;28;20038;-64
2023/10/04 11:32:22;;;;;;;16.00;15.00;;;;;;;;;;5003027;28;20056;-65
2023/10/04 11:34:48;;;;;;;14.40;13.50;;;;;;;;;;5003655;28;20105;-66
2023/10/04 11:37:13;;;;;;;16.02;15.02;;;;;;;;;;5003533;28;20045;-66
2023/10/04 11:39:39;;;;;;;15.73;14.82;;;;;;;;;;5003302;28;20034;-64
2023/10/04 11:42:21;;;;;;;22.73;21.42;;;;;;;;;;4982330;28;20037;-63
2023/10/04 11:44:47;;;;;;;20.20;18.90;;;;;;;;;;5004138;28;20034;-63
2023/10/04 11:47:15;;;;;;;24.00;22.67;;;;;;;;;;4999528;28;20041;-64
2023/10/04 11:49:55;;;;;;;25.00;23.60;;;;;;;;;;5003234;28;20500;-64
2023/10/04 11:52:24;;;;;;;25.38;23.83;;;;;;;;;;5002407;28;20478;-64
2023/10/04 11:54:53;;;;;;;23.77;22.48;;;;;;;;;;5001933;28;20041;-64
2023/10/04 11:57:31;;;;;;;16.27;15.32;;;;;;;;;;4999577;28;20074;-64
2023/10/04 11:59:57;;;;;;;15.73;14.70;;;;;;;;;;5000233;28;20034;-65
2023/10/04 12:02:26;;;;;;;14.60;13.75;;;;;;;;;;5001771;28;20530;-64
2023/10/04 12:04:52;;;;;;;16.38;15.32;;;;;;;;;;5001866;28;20034;-64
2023/10/04 12:07:17;;;;;;;15.13;14.20;;;;;;;;;;5000090;28;20029;-63
2023/10/04 12:09:43;;;;;;;15.90;15.00;;;;;;;;;;5001338;28;20164;-63
2023/10/04 12:12:09;;;;;;;19.20;17.90;;;;;;;;;;5002681;28;20120;-64
2023/10/04 12:14:34;;;;;;;18.63;17.52;;;;;;;;;;4999941;28;20041;-64
2023/10/04 12:17:04;;;;;;;18.83;17.67;;;;;;;;;;5001769;28;20431;-64
2023/10/04 12:19:34;;;;;;;18.13;17.02;;;;;;;;;;4999613;28;20363;-64
2023/10/04 12:22:14;;;;;;;19.90;18.60;;;;;;;;;;5000992;28;20099;-64
2023/10/04 12:24:40;;;;;;;19.05;17.95;;;;;;;;;;4985327;28;20057;-64
2023/10/04 12:27:14;;;;;;;17.33;16.33;;;;;;;;;;4986051;28;20025;-64
2023/10/04 12:29:40;;;;;;;21.75;20.42;;;;;;;;;;5001459;28;20113;-64
2023/10/04 12:32:07;;;;;;;19.67;18.58;;;;;;;;;;4989122;28;20602;-64
2023/10/04 12:34:32;;;;;;;17.85;16.85;;;;;;;;;;5005630;28;20472;-63
2023/10/04 12:36:58;;;;;;;19.42;18.33;;;;;;;;;;5003449;28;20049;-64
2023/10/04 12:39:23;;;;;;;18.80;17.80;;;;;;;;;;5004425;28;20742;-65
2023/10/04 12:41:50;;;;;;;18.83;17.83;;;;;;;;;;5005448;28;20033;-64
2023/10/04 12:44:18;;;;;;;21.35;19.83;;;;;;;;;;5004656;28;20132;-65
2023/10/04 12:46:45;;;;;;;17.50;16.52;;;;;;;;;;5005265;28;20052;-64
2023/10/04 12:49:11;;;;;;;19.23;18.13;;;;;;;;;;5006069;28;20041;-64
2023/10/04 12:51:36;;;;;;;17.00;15.90;;;;;;;;;;5003819;28;20053;-64
2023/10/04 12:54:08;;;;;;;20.55;19.10;;;;;;;;;;5003272;28;20429;-63
2023/10/04 12:56:34;;;;;;;15.55;14.65;;;;;;;;;;5005257;28;20038;-63
2023/10/04 12:59:03;;;;;;;16.23;15.32;;;;;;;;;;5002507;28;20361;-63
2023/10/04 13:01:29;;;;;;;16.20;15.30;;;;;;;;;;5004518;28;20040;-63
2023/10/04 13:03:54;;;;;;;19.95;18.85;;;;;;;;;;5000879;28;20041;-63
2023/10/04 13:06:19;;;;;;;20.20;19.02;;;;;;;;;;5004039;28;20552;-63
2023/10/04 13:08:45;;;;;;;20.35;19.15;;;;;;;;;;5005591;28;20040;-63
2023/10/04 13:11:14;;;;;;;20.58;19.48;;;;;;;;;;4987964;28;20052;-64
2023/10/04 13:13:42;;;;;;;18.60;17.58;;;;;;;;;;5005520;28;20562;-63
2023/10/04 13:16:07;;;;;;;23.27;21.88;;;;;;;;;;5003235;28;20048;-63
2023/10/04 13:18:37;;;;;;;20.98;19.85;;;;;;;;;;5004991;28;20049;-63
2023/10/04 13:21:03;;;;;;;19.58;18.38;;;;;;;;;;5007503;28;20030;-63
2023/10/04 13:23:32;;;;;;;19.95;18.85;;;;;;;;;;5000901;28;20095;-64
2023/10/04 13:25:57;;;;;;;21.52;20.27;;;;;;;;;;5007170;28;20025;-63
2023/10/04 13:28:27;;;;;;;20.58;19.48;;;;;;;;;;5002689;28;20038;-63
2023/10/04 13:30:55;;;;;;;20.17;18.88;;;;;;;;;;5004104;28;20037;-64
2023/10/04 13:33:22;;;;;;;23.50;21.90;;;;;;;;;;5004254;28;20056;-62
2023/10/04 13:35:51;;;;;;;21.65;20.42;;;;;;;;;;5004682;28;20128;-63
2023/10/04 13:38:20;;;;;;;23.48;22.00;;;;;;;;;;5004119;28;20116;-62
2023/10/04 13:40:52;;;;;;;20.75;19.58;;;;;;;;;;5006889;28;21171;-62
2023/10/04 13:43:21;;;;;;;22.13;20.92;;;;;;;;;;5005138;28;20026;-62
2023/10/04 13:45:48;;;;;;;23.38;22.08;;;;;;;;;;4989214;28;20052;-62
2023/10/04 13:48:13;;;;;;;19.20;18.10;;;;;;;;;;5003343;28;20034;-62
2023/10/04 13:50:39;;;;;;;20.73;19.52;;;;;;;;;;5002958;28;20113;-62
2023/10/04 13:53:06;;;;;;;19.33;18.23;;;;;;;;;;5002529;28;20037;-62
2023/10/04 13:55:32;;;;;;;21.70;20.33;;;;;;;;;;5002718;28;20038;-62
2023/10/04 13:57:59;;;;;;;20.05;18.85;;;;;;;;;;5002496;28;20345;-62
2023/10/04 14:00:25;;;;;;;19.90;18.70;;;;;;;;;;5002168;28;20046;-62
2023/10/04 14:02:52;;;;;;;23.02;21.73;;;;;;;;;;5004022;28;20555;-62
2023/10/04 14:05:20;;;;;;;20.70;19.55;;;;;;;;;;5004464;28;20038;-62
2023/10/04 14:07:53;;;;;;;22.23;20.98;;;;;;;;;;5003351;28;20087;-62
2023/10/04 14:10:24;;;;;;;21.73;20.42;;;;;;;;;;5003051;28;20030;-62
2023/10/04 14:12:55;;;;;;;;;;;;;;;;;;5003078;28;21334;-62
2023/10/04 14:15:25;;;;;;;19.52;18.40;;;;;;;;;;5003737;28;19921;-63
2023/10/04 14:17:54;;;;;;;19.90;18.60;;;;;;;;;;5004300;28;20318;-62
2023/10/04 14:20:20;;;;;;;23.25;21.85;;;;;;;;;;5002888;28;20061;-62
2023/10/04 14:22:48;;;;;;;20.20;18.80;;;;;;;;;;5003225;28;20061;-64
2023/10/04 14:25:14;;;;;;;20.25;19.05;;;;;;;;;;5004576;28;20052;-64
2023/10/04 14:27:40;;;;;;;24.50;23.10;;;;;;;;;;5004698;28;20034;-63
2023/10/04 14:30:11;;;;;;;22.20;20.92;;;;;;;;;;5004263;28;20311;-63
2023/10/04 14:32:38;;;;;;;20.05;18.90;;;;;;;;;;5005973;28;20375;-63